CheckWX is a tool to help pilots better visualize weather data.  It is not intended as a substitute for an official pre-flight weather briefing.

00:43:59 UTC

KFAT TAF
Fresno Yosemite International Airport
Fresno, California, USA
KFAT 182320Z 1900/1924 VRB05KT P6SM FEW120 SCT200

Oct-19@
00:00 UTC

Oct-19 @ 00:00 UTC

Oct-20@
00:00 UTC

Oct-20 @ 00:00 UTC

KFAT 182320Z 1900/1924 VRB05KT P6SM FEW120 SCT200
Wind
  • Variable at 5 KTS
Cloud Levels
  • Few at 12,000' AGL
  • Scattered at 20,000' AGL